createdAt,value
2023-04-03T00:01:25.921Z,97010.96
2023-04-03T00:03:53.859Z,97011.30
2023-04-03T00:06:21.845Z,97014.09
2023-04-03T00:08:49.861Z,97009.42
2023-04-03T00:11:18.468Z,97006.83
2023-04-03T00:13:46.481Z,97009.98
2023-04-03T00:16:14.482Z,97007.45
2023-04-03T00:18:42.802Z,97005.40
2023-04-03T00:21:14.192Z,97009.42
2023-04-03T00:23:43.017Z,97012.55
2023-04-03T00:26:11.663Z,97006.65
2023-04-03T00:28:40.667Z,97006.13
2023-04-03T00:31:08.989Z,97001.41
2023-04-03T00:33:37.074Z,97002.09
2023-04-03T00:36:10.562Z,97002.06
2023-04-03T00:38:38.628Z,97004.46
2023-04-03T00:41:08.168Z,97005.70
2023-04-03T00:43:36.960Z,97004.88
2023-04-03T00:46:05.546Z,97005.25
2023-04-03T00:48:48.491Z,97006.52
2023-04-03T00:51:22.146Z,97008.30
2023-04-03T00:54:00.498Z,97015.13
2023-04-03T00:56:31.330Z,97016.55
2023-04-03T00:59:05.341Z,97021.91
2023-04-03T01:01:33.692Z,97021.20
2023-04-03T01:04:04.350Z,97022.23
2023-04-03T01:06:37.488Z,97024.48
2023-04-03T01:09:09.551Z,97024.30
2023-04-03T01:11:37.526Z,97025.23
2023-04-03T01:14:07.199Z,97027.36
2023-04-03T01:16:35.852Z,97029.02
2023-04-03T01:19:04.843Z,97030.81
2023-04-03T01:21:55.905Z,97029.31
2023-04-03T01:24:26.844Z,97026.79
2023-04-03T01:26:55.614Z,97024.80
2023-04-03T01:29:23.624Z,97022.83
2023-04-03T01:32:01.104Z,97024.85
2023-04-03T01:34:31.265Z,97026.00
2023-04-03T01:37:00.059Z,97027.27
2023-04-03T01:39:28.130Z,97026.95
2023-04-03T01:41:56.479Z,97029.36
2023-04-03T01:44:36.416Z,97032.81
2023-04-03T01:47:07.469Z,97037.67
2023-04-03T01:49:36.094Z,97038.16
2023-04-03T01:52:04.365Z,97038.15
2023-04-03T01:54:32.488Z,97040.94
2023-04-03T01:57:00.464Z,97043.75
2023-04-03T01:59:29.334Z,97050.75
2023-04-03T02:01:57.821Z,97054.63
2023-04-03T02:04:26.331Z,97056.94
2023-04-03T02:06:54.283Z,97055.63
2023-04-03T02:09:22.403Z,97054.84
2023-04-03T02:11:51.167Z,97057.46
2023-04-03T02:14:19.166Z,97060.94
2023-04-03T02:16:47.146Z,97062.14
2023-04-03T02:19:15.677Z,97061.27
2023-04-03T02:21:43.888Z,97061.14
2023-04-03T02:24:11.926Z,97067.20
2023-04-03T02:26:39.956Z,97070.33
2023-04-03T02:29:08.146Z,97071.58
2023-04-03T02:31:36.720Z,97068.70
2023-04-03T02:34:05.267Z,97070.45
2023-04-03T02:36:33.268Z,97070.69
2023-04-03T02:39:04.483Z,97065.66
2023-04-03T02:41:38.567Z,97067.11
2023-04-03T02:44:12.158Z,97065.79
2023-04-03T02:46:40.956Z,97066.02
2023-04-03T02:49:09.027Z,97067.76
2023-04-03T02:51:37.176Z,97068.20
2023-04-03T02:54:05.416Z,97070.66
2023-04-03T02:56:35.459Z,97074.16
2023-04-03T02:59:04.285Z,97076.95
2023-04-03T03:01:33.929Z,97075.10
2023-04-03T03:04:02.000Z,97076.70
2023-04-03T03:06:30.036Z,97079.88
2023-04-03T03:08:58.011Z,97083.25
2023-04-03T03:11:26.633Z,97086.18
2023-04-03T03:13:54.734Z,97089.69
2023-04-03T03:16:22.745Z,97089.48
2023-04-03T03:18:51.234Z,97089.61
2023-04-03T03:21:19.432Z,97090.14
2023-04-03T03:23:47.541Z,97096.05
2023-04-03T03:26:15.650Z,97102.14
2023-04-03T03:28:43.620Z,97106.49
2023-04-03T03:31:13.564Z,97110.02
2023-04-03T03:33:42.418Z,97113.98
2023-04-03T03:36:10.586Z,97113.80
2023-04-03T03:38:39.116Z,97119.01
2023-04-03T03:41:07.501Z,97116.73
2023-04-03T03:43:36.552Z,97116.36
2023-04-03T03:46:06.085Z,97117.92
2023-04-03T03:48:34.470Z,97117.03
2023-04-03T03:51:03.223Z,97114.07
2023-04-03T03:53:34.585Z,97114.61
2023-04-03T03:56:06.755Z,97111.19
2023-04-03T03:58:36.008Z,97109.66
2023-04-03T04:01:07.016Z,97116.11
2023-04-03T04:03:36.981Z,97117.69
2023-04-03T04:06:06.226Z,97122.96
2023-04-03T04:08:34.274Z,97125.84
2023-04-03T04:11:02.637Z,97128.05
2023-04-03T04:13:31.135Z,97124.21
2023-04-03T04:15:59.902Z,97127.14
2023-04-03T04:18:27.913Z,97129.38
2023-04-03T04:20:56.000Z,97128.16
2023-04-03T04:23:24.336Z,97132.22
2023-04-03T04:25:52.544Z,97129.50
2023-04-03T04:28:21.385Z,97127.89
2023-04-03T04:30:50.415Z,97130.98
2023-04-03T04:33:20.126Z,97134.39
2023-04-03T04:35:49.852Z,97133.08
2023-04-03T04:38:19.109Z,97135.77
2023-04-03T04:40:49.438Z,97136.88
2023-04-03T04:43:17.674Z,97137.94
2023-04-03T04:45:47.984Z,97139.62
2023-04-03T04:48:18.278Z,97140.77
2023-04-03T04:50:47.011Z,97133.98
2023-04-03T04:53:14.988Z,97140.23
2023-04-03T04:55:44.259Z,97143.02
2023-04-03T04:58:12.824Z,97142.72
2023-04-03T05:00:41.365Z,97143.27
2023-04-03T05:03:09.726Z,97142.71
2023-04-03T05:05:38.670Z,97143.20
2023-04-03T05:08:07.431Z,97145.42
2023-04-03T05:10:35.818Z,97146.06
2023-04-03T05:13:04.055Z,97145.49
2023-04-03T05:15:32.450Z,97146.31
2023-04-03T05:18:01.271Z,97149.39
2023-04-03T05:20:29.617Z,97152.12
2023-04-03T05:22:57.637Z,97149.50
2023-04-03T05:25:27.076Z,97146.77
2023-04-03T05:27:57.154Z,97143.25
2023-04-03T05:30:25.751Z,97143.02
2023-04-03T05:32:55.016Z,97135.24
2023-04-03T05:35:30.951Z,97126.80
2023-04-03T05:38:00.380Z,97123.36
2023-04-03T05:40:28.728Z,97127.52
2023-04-03T05:42:57.851Z,97123.73
2023-04-03T05:45:26.657Z,97124.45
2023-04-03T05:47:54.778Z,97133.38
2023-04-03T05:50:23.242Z,97125.16
2023-04-03T05:52:56.459Z,97132.06
2023-04-03T05:55:24.797Z,97132.87
2023-04-03T05:57:53.123Z,97135.25
2023-04-03T06:00:22.555Z,97137.48
2023-04-03T06:02:56.717Z,97143.92
2023-04-03T06:05:26.210Z,97142.70
2023-04-03T06:07:54.796Z,97131.50
2023-04-03T06:10:22.934Z,97125.80
2023-04-03T06:12:52.507Z,97136.70
2023-04-03T06:15:21.469Z,97135.98
2023-04-03T06:17:49.894Z,97145.45
2023-04-03T06:20:18.630Z,97150.70
2023-04-03T06:22:47.285Z,97148.72
2023-04-03T06:25:15.671Z,97153.31
2023-04-03T06:27:43.844Z,97152.55
2023-04-03T06:30:12.687Z,97148.55
2023-04-03T06:32:41.572Z,97154.91
2023-04-03T06:35:10.241Z,97156.70
2023-04-03T06:37:38.622Z,97155.91
2023-04-03T06:40:07.893Z,97152.25
2023-04-03T06:42:36.034Z,97154.33
2023-04-03T06:45:12.980Z,97156.05
2023-04-03T06:47:41.795Z,97158.77
2023-04-03T06:50:15.118Z,97159.95
2023-04-03T06:52:43.302Z,97158.54
2023-04-03T06:55:11.791Z,97159.56
2023-04-03T06:57:39.906Z,97161.69
2023-04-03T07:00:08.599Z,97165.97
2023-04-03T07:02:36.869Z,97168.64
2023-04-03T07:05:05.795Z,97168.19
2023-04-03T07:07:35.342Z,97166.36
2023-04-03T07:10:03.879Z,97164.45
2023-04-03T07:12:32.148Z,97163.99
2023-04-03T07:15:00.709Z,97170.95
2023-04-03T07:17:29.444Z,97172.31
2023-04-03T07:19:57.940Z,97166.51
2023-04-03T07:22:26.465Z,97167.26
2023-04-03T07:24:54.849Z,97167.61
2023-04-03T07:27:23.708Z,97166.15
2023-04-03T07:29:53.414Z,97166.16
2023-04-03T07:32:22.468Z,97174.83
2023-04-03T07:34:51.264Z,97177.72
2023-04-03T07:37:19.837Z,97184.02
2023-04-03T07:39:50.101Z,97185.09
2023-04-03T07:42:19.141Z,97189.82
2023-04-03T07:44:47.642Z,97187.00
2023-04-03T07:47:17.805Z,97191.17
2023-04-03T07:49:45.925Z,97190.77
2023-04-03T07:52:15.887Z,97189.32
2023-04-03T07:54:44.334Z,97190.46
2023-04-03T07:57:12.889Z,97193.30
2023-04-03T07:59:42.279Z,97192.45
2023-04-03T08:02:11.783Z,97196.14
2023-04-03T08:04:41.038Z,97195.16
2023-04-03T08:07:09.867Z,97196.70
2023-04-03T08:09:38.496Z,97195.98
2023-04-03T08:12:09.300Z,97199.65
2023-04-03T08:14:37.428Z,97208.73
2023-04-03T08:17:06.198Z,97209.51
2023-04-03T08:19:34.539Z,97212.39
2023-04-03T08:22:04.148Z,97218.42
2023-04-03T08:24:34.249Z,97221.50
2023-04-03T08:27:02.914Z,97220.90
2023-04-03T08:29:32.435Z,97224.34
2023-04-03T08:32:02.362Z,97226.30
2023-04-03T08:34:30.783Z,97226.23
2023-04-03T08:36:59.013Z,97233.52
2023-04-03T08:39:27.457Z,97233.20
2023-04-03T08:41:59.814Z,97233.52
2023-04-03T08:44:37.509Z,97233.38
2023-04-03T08:47:39.315Z,97228.61
2023-04-03T08:50:14.092Z,97224.38
2023-04-03T08:52:46.728Z,97216.84
2023-04-03T08:55:32.099Z,97219.48
2023-04-03T08:58:06.898Z,97221.39
2023-04-03T09:00:50.931Z,97229.13
2023-04-03T09:03:22.165Z,97229.61
2023-04-03T09:06:09.174Z,97227.00
2023-04-03T09:08:46.484Z,97223.35
2023-04-03T09:11:17.502Z,97227.70
2023-04-03T09:13:48.628Z,97225.95
2023-04-03T09:16:36.298Z,97226.02
2023-04-03T09:19:28.144Z,97230.11
2023-04-03T09:21:59.003Z,97235.98
2023-04-03T09:24:27.890Z,97233.55
2023-04-03T09:27:05.236Z,97237.04
2023-04-03T09:29:37.522Z,97239.86
2023-04-03T09:32:22.318Z,97243.09
2023-04-03T09:34:52.591Z,97247.23
2023-04-03T09:37:39.976Z,97246.27
2023-04-03T09:40:27.696Z,97250.23
2023-04-03T09:43:02.023Z,97251.27
2023-04-03T09:45:34.064Z,97261.30
2023-04-03T09:48:17.362Z,97261.20
2023-04-03T09:50:51.727Z,97261.17
2023-04-03T09:53:49.640Z,97259.93
2023-04-03T09:56:17.985Z,97260.64
2023-04-03T09:58:52.056Z,97262.46
2023-04-03T10:01:31.284Z,97259.15
2023-04-03T10:04:26.478Z,97261.98
2023-04-03T10:06:58.278Z,97264.16
2023-04-03T10:09:27.972Z,97265.67
2023-04-03T10:12:06.282Z,97267.43
2023-04-03T10:14:37.296Z,97269.42
2023-04-03T10:17:30.404Z,97271.70
2023-04-03T10:20:14.600Z,97277.42
2023-04-03T10:23:19.017Z,97277.34
2023-04-03T10:26:34.048Z,97271.77
2023-04-03T10:29:30.053Z,97272.52
2023-04-03T10:32:12.793Z,97274.34
2023-04-03T10:34:51.683Z,97278.23
2023-04-03T10:37:42.918Z,97275.22
2023-04-03T10:40:32.391Z,97269.91
2023-04-03T10:43:16.057Z,97261.64
2023-04-03T10:46:06.203Z,97266.88
2023-04-03T10:49:16.115Z,97270.44
2023-04-03T10:51:56.882Z,97273.05
2023-04-03T10:54:42.544Z,97266.27
2023-04-03T10:57:14.062Z,97266.79
2023-04-03T10:59:44.963Z,97265.19
2023-04-03T11:02:25.317Z,97264.09
2023-04-03T11:05:03.775Z,97271.48
2023-04-03T11:07:40.751Z,97269.62
2023-04-03T11:10:25.376Z,97268.98
2023-04-03T11:13:01.092Z,97268.50
2023-04-03T11:15:32.068Z,97271.44
2023-04-03T11:18:23.914Z,97270.21
2023-04-03T11:21:05.117Z,97266.79
2023-04-03T11:23:49.067Z,97263.92
2023-04-03T11:26:23.250Z,97265.75
2023-04-03T11:29:00.154Z,97266.30
2023-04-03T11:31:44.225Z,97266.29
2023-04-03T11:34:44.447Z,97264.65
2023-04-03T11:37:18.979Z,97256.86
2023-04-03T11:39:56.652Z,97256.51
2023-04-03T11:42:42.447Z,97247.36
2023-04-03T11:45:30.488Z,97251.27
2023-04-03T11:48:07.314Z,97253.81
2023-04-03T11:50:48.311Z,97258.60
2023-04-03T11:53:16.894Z,97257.20
2023-04-03T11:55:49.735Z,97258.03
2023-04-03T11:58:20.392Z,97257.25
2023-04-03T12:00:56.229Z,97257.20
2023-04-03T12:03:25.051Z,97253.79
2023-04-03T12:06:06.313Z,97252.45
2023-04-03T12:08:34.711Z,97249.78
2023-04-03T12:11:11.838Z,97252.48
2023-04-03T12:13:59.605Z,97255.21
2023-04-03T12:16:35.169Z,97248.83
2023-04-03T12:19:32.261Z,97242.33
2023-04-03T12:22:15.591Z,97240.82
2023-04-03T12:24:49.539Z,97240.45
2023-04-03T12:27:25.774Z,97233.59
2023-04-03T12:30:05.871Z,97234.58
2023-04-03T12:32:41.917Z,97234.95
2023-04-03T12:35:15.535Z,97239.08
2023-04-03T12:38:02.152Z,97241.17
2023-04-03T12:40:58.455Z,97241.41
2023-04-03T12:43:38.253Z,97237.98
2023-04-03T12:46:17.418Z,97233.59
2023-04-03T12:48:46.024Z,97231.95
2023-04-03T12:51:36.190Z,97235.31
2023-04-03T12:54:41.127Z,97233.66
2023-04-03T12:57:31.661Z,97224.94
2023-04-03T13:00:01.054Z,97220.95
2023-04-03T13:02:31.617Z,97216.08
2023-04-03T13:05:08.303Z,97219.42
2023-04-03T13:07:40.144Z,97215.79
2023-04-03T13:10:08.864Z,97214.30
2023-04-03T13:13:09.798Z,97210.27
2023-04-03T13:15:44.308Z,97208.96
2023-04-03T13:18:29.830Z,97208.96
2023-04-03T13:21:04.037Z,97206.23
2023-04-03T13:23:36.130Z,97199.98
2023-04-03T13:26:07.905Z,97198.30
2023-04-03T13:28:37.909Z,97198.36
2023-04-03T13:31:20.743Z,97200.78
2023-04-03T13:34:14.447Z,97196.54
2023-04-03T13:37:05.595Z,97194.62
2023-04-03T13:39:39.552Z,97197.61
2023-04-03T13:42:25.951Z,97199.31
2023-04-03T13:45:25.403Z,97201.26
2023-04-03T13:47:56.295Z,97201.14
2023-04-03T13:50:26.895Z,97201.22
2023-04-03T13:53:02.202Z,97198.35
2023-04-03T13:55:37.747Z,97202.73
2023-04-03T13:58:09.071Z,97201.80
2023-04-03T14:00:39.006Z,97202.05
2023-04-03T14:03:30.169Z,97203.88
2023-04-03T14:05:58.968Z,97203.88
2023-04-03T14:08:41.780Z,97201.18
2023-04-03T14:11:15.633Z,97193.48
2023-04-03T14:13:45.585Z,97187.88
2023-04-03T14:16:17.928Z,97189.53
2023-04-03T14:18:49.069Z,97189.81
2023-04-03T14:21:18.742Z,97192.87
2023-04-03T14:23:47.519Z,97185.73
2023-04-03T14:26:22.477Z,97186.66
2023-04-03T14:28:54.652Z,97189.68
2023-04-03T14:31:23.472Z,97191.77
2023-04-03T14:33:51.673Z,97190.96
2023-04-03T14:36:24.434Z,97193.52
2023-04-03T14:38:54.028Z,97195.05
2023-04-03T14:41:26.242Z,97201.75
2023-04-03T14:43:54.865Z,97199.02
2023-04-03T14:46:45.522Z,97199.42
2023-04-03T14:49:23.700Z,97203.67
2023-04-03T14:51:51.897Z,97203.42
2023-04-03T14:54:26.707Z,97200.63
2023-04-03T14:56:56.937Z,97201.86
2023-04-03T14:59:26.021Z,97204.98
2023-04-03T15:01:54.293Z,97209.20
2023-04-03T15:04:22.520Z,97215.13
2023-04-03T15:06:52.799Z,97215.44
2023-04-03T15:09:22.863Z,97220.87
2023-04-03T15:11:52.751Z,97222.70
2023-04-03T15:14:35.275Z,97220.80
2023-04-03T15:17:07.093Z,97224.34
2023-04-03T15:19:39.067Z,97224.02
2023-04-03T15:22:07.757Z,97221.75
2023-04-03T15:24:36.317Z,97217.01
2023-04-03T15:27:04.839Z,97217.75
2023-04-03T15:29:33.137Z,97213.58
2023-04-03T15:32:01.765Z,97213.97
2023-04-03T15:34:29.978Z,97213.08
2023-04-03T15:36:58.684Z,97209.85
2023-04-03T15:39:27.520Z,97206.20
2023-04-03T15:41:56.189Z,97204.25
2023-04-03T15:44:24.654Z,97205.48
2023-04-03T15:46:52.974Z,97201.98
2023-04-03T15:49:23.414Z,97199.55
2023-04-03T15:51:51.917Z,97202.15
2023-04-03T15:54:20.136Z,97200.83
2023-04-03T15:56:48.460Z,97207.36
2023-04-03T15:59:17.018Z,97210.91
2023-04-03T16:01:45.138Z,97213.14
2023-04-03T16:04:14.842Z,97210.27
2023-04-03T16:06:44.577Z,97208.02
2023-04-03T16:09:12.931Z,97204.60
2023-04-03T16:11:41.241Z,97196.78
2023-04-03T16:14:09.564Z,97194.33
2023-04-03T16:16:38.625Z,97196.80
2023-04-03T16:19:06.820Z,97199.99
2023-04-03T16:21:35.034Z,97201.52
2023-04-03T16:24:03.628Z,97208.85
2023-04-03T16:26:32.023Z,97208.09
2023-04-03T16:29:00.494Z,97206.48
2023-04-03T16:31:29.425Z,97202.11
2023-04-03T16:33:57.915Z,97202.13
2023-04-03T16:36:26.888Z,97201.45
2023-04-03T16:38:55.170Z,97198.07
2023-04-03T16:41:23.668Z,97199.09
2023-04-03T16:43:51.946Z,97201.88
2023-04-03T16:46:20.143Z,97206.55
2023-04-03T16:48:50.272Z,97210.89
2023-04-03T16:51:20.110Z,97211.46
2023-04-03T16:53:48.510Z,97214.98
2023-04-03T16:56:17.390Z,97220.13
2023-04-03T16:58:46.168Z,97221.34
2023-04-03T17:01:17.468Z,97221.90
2023-04-03T17:03:46.107Z,97227.23
2023-04-03T17:06:20.142Z,97227.02
2023-04-03T17:08:50.771Z,97230.06
2023-04-03T17:11:30.617Z,97236.06
2023-04-03T17:13:58.765Z,97229.60
2023-04-03T17:16:27.589Z,97226.91
2023-04-03T17:18:56.631Z,97228.77
2023-04-03T17:21:24.950Z,97235.46
2023-04-03T17:23:58.773Z,97231.60
2023-04-03T17:26:28.111Z,97236.52
2023-04-03T17:28:57.348Z,97236.77
2023-04-03T17:31:25.392Z,97229.42
2023-04-03T17:33:54.141Z,97236.09
2023-04-03T17:36:22.657Z,97246.25
2023-04-03T17:38:51.967Z,97249.50
2023-04-03T17:41:20.188Z,97249.86
2023-04-03T17:43:48.464Z,97249.25
2023-04-03T17:46:17.803Z,97256.95
2023-04-03T17:48:46.374Z,97252.98
2023-04-03T17:51:18.116Z,97256.48
2023-04-03T17:53:47.415Z,97257.70
2023-04-03T17:56:18.757Z,97264.27
2023-04-03T17:58:47.261Z,97270.42
2023-04-03T18:01:30.446Z,97272.58
2023-04-03T18:04:02.517Z,97271.09
2023-04-03T18:06:38.801Z,97270.42
2023-04-03T18:09:29.155Z,97263.73
2023-04-03T18:11:58.440Z,97259.73
2023-04-03T18:14:28.176Z,97265.91
2023-04-03T18:16:59.769Z,97274.77
2023-04-03T18:19:29.774Z,97275.63
2023-04-03T18:22:02.526Z,97274.08
2023-04-03T18:24:33.995Z,97274.27
2023-04-03T18:27:07.351Z,97282.79
2023-04-03T18:29:38.445Z,97288.70
2023-04-03T18:32:09.524Z,97290.16
2023-04-03T18:34:38.226Z,97291.36
2023-04-03T18:37:06.519Z,97292.80
2023-04-03T18:39:34.669Z,97289.80
2023-04-03T18:42:10.126Z,97292.47
2023-04-03T18:44:40.961Z,97294.61
2023-04-03T18:47:09.433Z,97290.97
2023-04-03T18:49:40.909Z,97291.20
2023-04-03T18:52:11.210Z,97289.80
2023-04-03T18:54:39.643Z,97285.45
2023-04-03T18:57:07.926Z,97287.27
2023-04-03T18:59:37.710Z,97286.37
2023-04-03T19:02:07.853Z,97289.13
2023-04-03T19:04:36.858Z,97288.98
2023-04-03T19:07:06.663Z,97288.80
2023-04-03T19:09:35.140Z,97290.70
2023-04-03T19:12:03.509Z,97294.52
2023-04-03T19:14:31.806Z,97293.35
2023-04-03T19:17:00.531Z,97291.76
2023-04-03T19:19:28.837Z,97286.48
2023-04-03T19:21:57.025Z,97281.99
2023-04-03T19:24:25.394Z,97285.18
2023-04-03T19:26:54.082Z,97289.55
2023-04-03T19:29:22.221Z,97285.59
2023-04-03T19:31:50.907Z,97285.14
2023-04-03T19:34:19.292Z,97283.77
2023-04-03T19:36:48.163Z,97281.91
2023-04-03T19:39:16.471Z,97271.19
2023-04-03T19:41:46.314Z,97279.88
2023-04-03T19:44:14.341Z,97280.59
2023-04-03T19:46:51.444Z,97277.32
2023-04-03T19:49:20.189Z,97274.77
2023-04-03T19:51:48.288Z,97277.45
2023-04-03T19:54:16.470Z,97271.77
2023-04-03T19:56:45.764Z,97271.95
2023-04-03T19:59:14.082Z,97272.52
2023-04-03T20:01:43.038Z,97266.63
2023-04-03T20:04:11.416Z,97269.06
2023-04-03T20:06:39.801Z,97262.33
2023-04-03T20:09:08.137Z,97266.48
2023-04-03T20:11:37.127Z,97264.59
2023-04-03T20:14:05.083Z,97261.47
2023-04-03T20:16:33.170Z,97263.38
2023-04-03T20:19:01.489Z,97268.58
2023-04-03T20:21:32.169Z,97266.33
2023-04-03T20:24:02.201Z,97270.53
2023-04-03T20:26:31.788Z,97270.17
2023-04-03T20:29:02.736Z,97271.09
2023-04-03T20:31:32.911Z,97269.38
2023-04-03T20:34:01.671Z,97263.33
2023-04-03T20:36:31.323Z,97259.88
2023-04-03T20:38:59.966Z,97263.88
2023-04-03T20:41:28.027Z,97268.23
2023-04-03T20:43:56.018Z,97270.30
2023-04-03T20:46:38.205Z,97269.62
2023-04-03T20:49:10.818Z,97268.60
2023-04-03T20:51:39.191Z,97265.65
2023-04-03T20:54:07.411Z,97257.64
2023-04-03T20:56:36.327Z,97256.08
2023-04-03T20:59:05.161Z,97256.27
2023-04-03T21:01:33.510Z,97258.73
2023-04-03T21:04:11.638Z,97255.42
2023-04-03T21:07:18.533Z,97251.61
2023-04-03T21:10:24.842Z,97249.36
2023-04-03T21:13:30.162Z,97249.70
2023-04-03T21:16:00.892Z,97246.77
2023-04-03T21:18:48.257Z,97248.70
2023-04-03T21:21:23.237Z,97249.41
2023-04-03T21:23:52.772Z,97247.66
2023-04-03T21:26:22.534Z,97243.52
2023-04-03T21:28:51.932Z,97243.86
2023-04-03T21:31:23.588Z,97242.28
2023-04-03T21:33:51.797Z,97240.56
2023-04-03T21:36:19.781Z,97239.01
2023-04-03T21:38:48.312Z,97233.16
2023-04-03T21:41:16.404Z,97230.21
2023-04-03T21:43:46.627Z,97225.20
2023-04-03T21:46:14.769Z,97224.86
2023-04-03T21:48:42.922Z,97222.77
2023-04-03T21:51:11.111Z,97221.22
2023-04-03T21:53:40.196Z,97222.61
2023-04-03T21:56:08.502Z,97221.27
2023-04-03T21:58:36.429Z,97217.83
2023-04-03T22:01:12.134Z,97214.20
2023-04-03T22:03:41.913Z,97214.19
2023-04-03T22:06:15.569Z,97218.36
2023-04-03T22:08:44.132Z,97220.11
2023-04-03T22:11:14.891Z,97214.40
2023-04-03T22:13:44.087Z,97215.79
2023-04-03T22:16:12.963Z,97214.23
2023-04-03T22:18:41.065Z,97222.44
2023-04-03T22:21:09.420Z,97231.62
2023-04-03T22:23:38.232Z,97234.38
2023-04-03T22:26:08.219Z,97230.40
2023-04-03T22:28:41.725Z,97229.37
2023-04-03T22:31:10.979Z,97232.33
2023-04-03T22:33:39.567Z,97230.11
2023-04-03T22:36:09.395Z,97231.70
2023-04-03T22:38:39.086Z,97234.65
2023-04-03T22:41:08.248Z,97235.19
2023-04-03T22:43:37.630Z,97224.83
2023-04-03T22:46:08.629Z,97216.18
2023-04-03T22:48:38.763Z,97210.82
2023-04-03T22:51:07.747Z,97210.66
2023-04-03T22:53:39.354Z,97211.36
2023-04-03T22:56:08.847Z,97210.65
2023-04-03T22:58:37.785Z,97211.17
2023-04-03T23:01:16.061Z,97217.73
2023-04-03T23:03:44.342Z,97225.35
2023-04-03T23:06:13.624Z,97222.24
2023-04-03T23:08:42.742Z,97221.04
2023-04-03T23:11:10.730Z,97221.90
2023-04-03T23:13:38.716Z,97218.63
2023-04-03T23:16:07.175Z,97218.63
2023-04-03T23:18:39.972Z,97216.21
2023-04-03T23:21:09.654Z,97212.07
2023-04-03T23:23:38.222Z,97211.20
2023-04-03T23:26:06.695Z,97210.66
2023-04-03T23:28:34.648Z,97209.30
2023-04-03T23:31:06.854Z,97210.83
2023-04-03T23:33:34.930Z,97205.30
2023-04-03T23:36:08.161Z,97200.80
2023-04-03T23:38:36.928Z,97203.39
2023-04-03T23:41:04.875Z,97198.55
2023-04-03T23:43:32.701Z,97199.77
2023-04-03T23:46:00.794Z,97196.13
2023-04-03T23:48:28.780Z,97197.50
2023-04-03T23:50:56.926Z,97195.77
2023-04-03T23:53:24.769Z,97200.42
2023-04-03T23:55:52.706Z,97205.78
2023-04-03T23:58:20.994Z,97201.97
